Time;durP1;ratioP1;P1;durP2;ratioP2;P2;SDS_P1;SDS_P2;PMS_P1;PMS_P2;Temp;Humidity;BMP_temperature;BMP_pressure;BME280_temperature;BME280_humidity;BME280_pressure;Samples;Min_cycle;Max_cycle;Signal;HPM_P1;HPM_P2
2020/12/28 00:00:35;;;;;;;11.35;7.47;;;;;;;;;;6132364;23;20024;-86
2020/12/28 00:03:01;;;;;;;13.70;7.30;;;;;;;;;;6129414;23;20021;-85
2020/12/28 00:05:27;;;;;;;12.65;7.40;;;;;;;;;;6132780;23;20449;-85
2020/12/28 00:07:54;;;;;;;13.98;7.95;;;;;;;;;;6159983;23;20018;-85
2020/12/28 00:10:20;;;;;;;10.93;7.18;;;;;;;;;;6156534;23;20020;-85
2020/12/28 00:12:49;;;;;;;9.63;7.85;;;;;;;;;;6158801;23;20020;-85
2020/12/28 00:15:20;;;;;;;9.13;7.40;;;;;;;;;;6133393;23;20020;-85
2020/12/28 00:17:48;;;;;;;15.40;6.75;;;;;;;;;;6130807;23;20043;-85
2020/12/28 00:20:14;;;;;;;14.45;7.82;;;;;;;;;;6157238;23;20010;-85
2020/12/28 00:22:41;;;;;;;12.68;8.23;;;;;;;;;;6156725;23;20021;-85
2020/12/28 00:25:07;;;;;;;11.40;7.38;;;;;;;;;;6159098;23;20017;-85
2020/12/28 00:27:33;;;;;;;10.13;6.63;;;;;;;;;;6156384;23;20025;-85
2020/12/28 00:29:59;;;;;;;10.52;7.20;;;;;;;;;;6163050;23;20017;-86
2020/12/28 00:32:26;;;;;;;10.57;6.15;;;;;;;;;;6163307;23;20017;-85
2020/12/28 00:34:53;;;;;;;13.25;6.85;;;;;;;;;;6164937;23;20362;-85
2020/12/28 00:37:19;;;;;;;12.68;6.60;;;;;;;;;;6164305;23;20028;-86
2020/12/28 00:39:45;;;;;;;12.18;6.43;;;;;;;;;;6139680;23;20018;-85
2020/12/28 00:42:11;;;;;;;10.10;5.95;;;;;;;;;;6113473;23;20017;-85
2020/12/28 00:44:37;;;;;;;10.48;6.63;;;;;;;;;;6164649;23;20423;-85
2020/12/28 00:47:03;;;;;;;9.02;6.57;;;;;;;;;;6165803;23;20035;-85
2020/12/28 00:49:29;;;;;;;10.52;6.47;;;;;;;;;;6139589;23;20434;-85
2020/12/28 00:51:56;;;;;;;11.07;6.25;;;;;;;;;;6166147;23;20018;-85
2020/12/28 00:54:22;;;;;;;13.75;7.25;;;;;;;;;;6163423;23;20072;-84
2020/12/28 00:56:50;;;;;;;10.20;6.57;;;;;;;;;;6157605;23;20018;-85
2020/12/28 00:59:16;;;;;;;11.02;6.80;;;;;;;;;;6156820;23;20013;-85
2020/12/28 01:01:42;;;;;;;13.55;7.57;;;;;;;;;;6131187;23;20473;-85
2020/12/28 01:04:08;;;;;;;13.48;7.13;;;;;;;;;;6131037;23;20024;-84
2020/12/28 01:06:34;;;;;;;10.55;6.32;;;;;;;;;;6130704;23;20442;-85
2020/12/28 01:09:03;;;;;;;13.43;7.75;;;;;;;;;;6132278;23;20017;-85
2020/12/28 01:11:29;;;;;;;12.00;7.45;;;;;;;;;;6132030;23;20022;-85
2020/12/28 01:13:55;;;;;;;10.93;7.15;;;;;;;;;;6131930;23;20328;-85
2020/12/28 01:16:22;;;;;;;16.13;9.10;;;;;;;;;;6131492;23;20064;-85
2020/12/28 01:18:48;;;;;;;9.88;6.18;;;;;;;;;;6157857;23;20014;-85
2020/12/28 01:21:18;;;;;;;12.07;7.03;;;;;;;;;;6159218;23;20036;-85
2020/12/28 01:23:45;;;;;;;21.13;9.38;;;;;;;;;;6158498;23;20016;-85
2020/12/28 01:26:11;;;;;;;17.20;9.73;;;;;;;;;;6108716;23;20064;-84
2020/12/28 01:28:38;;;;;;;16.40;9.20;;;;;;;;;;6133380;23;20041;-85
2020/12/28 01:31:04;;;;;;;16.83;8.55;;;;;;;;;;6156683;23;20017;-85
2020/12/28 01:33:30;;;;;;;24.33;10.77;;;;;;;;;;6157984;23;20442;-85
2020/12/28 01:35:57;;;;;;;17.35;9.85;;;;;;;;;;6158670;23;20020;-85
2020/12/28 01:38:23;;;;;;;17.77;9.35;;;;;;;;;;6157222;23;20013;-85
2020/12/28 01:40:49;;;;;;;18.05;10.15;;;;;;;;;;6158495;23;20022;-85
2020/12/28 01:43:16;;;;;;;16.33;8.32;;;;;;;;;;6157901;23;20014;-85
2020/12/28 01:45:42;;;;;;;19.70;9.60;;;;;;;;;;6160608;23;20335;-85
2020/12/28 01:48:08;;;;;;;15.13;7.80;;;;;;;;;;6159728;23;20037;-85
2020/12/28 01:50:34;;;;;;;14.77;8.43;;;;;;;;;;6158632;23;20311;-85
2020/12/28 01:53:00;;;;;;;12.20;7.38;;;;;;;;;;6158939;23;20018;-85
2020/12/28 01:55:27;;;;;;;12.55;7.13;;;;;;;;;;6133814;23;20021;-85
2020/12/28 01:57:53;;;;;;;12.40;8.15;;;;;;;;;;6157774;23;20021;-85
2020/12/28 02:00:20;;;;;;;12.00;7.63;;;;;;;;;;6134318;23;20025;-85
2020/12/28 02:02:46;;;;;;;13.80;7.93;;;;;;;;;;6182671;23;20028;-81
2020/12/28 02:05:12;;;;;;;11.82;7.35;;;;;;;;;;6219468;23;20044;-82
2020/12/28 02:07:39;;;;;;;16.48;8.05;;;;;;;;;;6219752;23;20021;-81
2020/12/28 02:10:06;;;;;;;16.63;8.77;;;;;;;;;;6219853;23;20032;-82
2020/12/28 02:12:32;;;;;;;15.48;8.98;;;;;;;;;;6219095;23;20031;-81
2020/12/28 02:14:58;;;;;;;13.05;8.65;;;;;;;;;;6220026;23;20029;-82
2020/12/28 02:17:25;;;;;;;14.07;8.57;;;;;;;;;;6219713;23;20024;-82
2020/12/28 02:19:51;;;;;;;12.30;7.80;;;;;;;;;;6218741;23;20020;-82
2020/12/28 02:22:18;;;;;;;15.10;9.32;;;;;;;;;;6219196;23;20341;-81
2020/12/28 02:24:44;;;;;;;20.27;11.40;;;;;;;;;;6218541;23;20027;-81
2020/12/28 02:27:10;;;;;;;16.60;9.70;;;;;;;;;;6218547;23;20024;-81
2020/12/28 02:29:36;;;;;;;16.38;9.82;;;;;;;;;;6219081;23;20017;-82
2020/12/28 02:32:02;;;;;;;18.02;11.60;;;;;;;;;;6218156;23;20027;-81
2020/12/28 02:34:28;;;;;;;20.48;11.65;;;;;;;;;;6218317;23;20111;-82
2020/12/28 02:36:54;;;;;;;18.23;8.73;;;;;;;;;;6218480;23;20021;-81
2020/12/28 02:39:21;;;;;;;13.48;8.57;;;;;;;;;;6218733;23;20027;-82
2020/12/28 02:41:46;;;;;;;14.27;9.30;;;;;;;;;;6218822;23;20024;-81
2020/12/28 02:44:12;;;;;;;15.20;9.70;;;;;;;;;;6218608;23;20507;-81
2020/12/28 02:46:38;;;;;;;13.70;9.15;;;;;;;;;;6219264;23;20048;-81
2020/12/28 02:49:04;;;;;;;13.60;8.45;;;;;;;;;;6218662;23;20338;-81
2020/12/28 02:51:30;;;;;;;12.73;7.93;;;;;;;;;;6218807;23;20445;-81
2020/12/28 02:53:56;;;;;;;13.00;8.52;;;;;;;;;;6218489;23;20464;-82
2020/12/28 02:56:23;;;;;;;12.10;7.50;;;;;;;;;;6218595;23;20023;-82
2020/12/28 02:58:49;;;;;;;13.98;8.18;;;;;;;;;;6218675;23;20020;-81
2020/12/28 03:01:15;;;;;;;13.00;9.07;;;;;;;;;;6218811;23;20043;-82
2020/12/28 03:03:41;;;;;;;14.77;8.80;;;;;;;;;;6190079;23;20434;-81
2020/12/28 03:06:07;;;;;;;13.93;8.77;;;;;;;;;;6188496;23;20418;-82
2020/12/28 03:08:32;;;;;;;13.90;8.30;;;;;;;;;;6188294;23;20025;-81
2020/12/28 03:10:58;;;;;;;14.85;8.25;;;;;;;;;;6188767;23;20027;-81
2020/12/28 03:13:25;;;;;;;12.65;7.93;;;;;;;;;;6187892;23;20021;-82
2020/12/28 03:15:51;;;;;;;15.18;8.70;;;;;;;;;;6188563;23;20017;-83
2020/12/28 03:18:17;;;;;;;12.00;7.85;;;;;;;;;;6187885;23;20334;-82
2020/12/28 03:20:43;;;;;;;13.02;7.97;;;;;;;;;;6187979;23;20024;-82
2020/12/28 03:23:09;;;;;;;12.15;8.65;;;;;;;;;;6187823;23;20033;-82
2020/12/28 03:25:35;;;;;;;14.38;8.43;;;;;;;;;;6188155;23;20067;-82
2020/12/28 03:28:01;;;;;;;14.63;8.90;;;;;;;;;;6187607;23;20113;-82
2020/12/28 03:30:28;;;;;;;12.38;8.20;;;;;;;;;;6188582;23;20032;-81
2020/12/28 03:32:54;;;;;;;13.55;8.30;;;;;;;;;;6187693;23;20038;-82
2020/12/28 03:35:20;;;;;;;12.07;8.15;;;;;;;;;;6187858;23;20614;-82
2020/12/28 03:37:46;;;;;;;14.48;8.98;;;;;;;;;;6187691;23;20025;-82
2020/12/28 03:40:12;;;;;;;17.98;8.27;;;;;;;;;;6187641;23;20159;-82
2020/12/28 03:42:38;;;;;;;11.35;7.50;;;;;;;;;;6187232;23;20021;-81
2020/12/28 03:45:04;;;;;;;13.55;8.30;;;;;;;;;;6188312;23;20053;-82
2020/12/28 03:47:30;;;;;;;11.95;8.45;;;;;;;;;;6187653;23;20025;-81
2020/12/28 03:49:56;;;;;;;13.52;7.93;;;;;;;;;;6188069;23;20018;-82
2020/12/28 03:52:22;;;;;;;14.55;8.35;;;;;;;;;;6188417;23;20021;-82
2020/12/28 03:54:48;;;;;;;15.32;9.85;;;;;;;;;;6188122;23;20079;-81
2020/12/28 03:57:15;;;;;;;14.13;8.50;;;;;;;;;;6188331;23;20086;-81
2020/12/28 03:59:41;;;;;;;10.85;8.00;;;;;;;;;;6161223;23;20024;-81
2020/12/28 04:02:06;;;;;;;13.20;7.93;;;;;;;;;;6187945;23;20345;-82
2020/12/28 04:04:33;;;;;;;14.13;8.35;;;;;;;;;;6188122;23;20021;-81
2020/12/28 04:06:59;;;;;;;13.63;7.57;;;;;;;;;;6188083;23;20079;-81
2020/12/28 04:09:25;;;;;;;12.75;8.82;;;;;;;;;;6187822;23;20028;-82
2020/12/28 04:11:51;;;;;;;12.63;8.18;;;;;;;;;;6188193;23;20025;-81
2020/12/28 04:14:17;;;;;;;13.35;8.48;;;;;;;;;;6188130;23;20028;-81
2020/12/28 04:16:43;;;;;;;13.32;8.18;;;;;;;;;;6188446;23;20075;-81
2020/12/28 04:19:09;;;;;;;12.23;7.93;;;;;;;;;;6187937;23;20021;-81
2020/12/28 04:21:36;;;;;;;14.57;9.23;;;;;;;;;;6189559;23;20028;-82
2020/12/28 04:24:02;;;;;;;13.23;8.05;;;;;;;;;;6191640;23;20017;-82
2020/12/28 04:26:28;;;;;;;15.68;8.25;;;;;;;;;;6188055;23;20029;-82
2020/12/28 04:28:54;;;;;;;12.35;7.72;;;;;;;;;;6188030;23;20020;-82
2020/12/28 04:31:20;;;;;;;11.75;7.63;;;;;;;;;;6186938;23;20406;-82
2020/12/28 04:33:46;;;;;;;11.95;8.27;;;;;;;;;;6188247;23;20025;-81
2020/12/28 04:36:11;;;;;;;12.25;8.27;;;;;;;;;;6187974;23;20434;-81
2020/12/28 04:38:38;;;;;;;13.45;9.10;;;;;;;;;;6188294;23;20717;-81
2020/12/28 04:41:05;;;;;;;14.60;9.07;;;;;;;;;;6187720;23;20025;-81
2020/12/28 04:43:31;;;;;;;11.60;7.35;;;;;;;;;;6187808;23;20017;-81
2020/12/28 04:45:59;;;;;;;13.57;9.13;;;;;;;;;;6187820;23;20041;-81
2020/12/28 04:48:25;;;;;;;14.55;8.95;;;;;;;;;;6160911;23;20021;-81
2020/12/28 04:50:51;;;;;;;13.40;8.80;;;;;;;;;;6187756;23;20032;-81
2020/12/28 04:53:17;;;;;;;13.38;8.93;;;;;;;;;;6187521;23;20334;-81
2020/12/28 04:55:44;;;;;;;13.10;8.40;;;;;;;;;;6189570;23;20031;-81
2020/12/28 04:58:10;;;;;;;13.85;8.60;;;;;;;;;;6189388;23;20017;-81
2020/12/28 05:00:39;;;;;;;13.75;8.50;;;;;;;;;;6189350;23;20063;-82
2020/12/28 05:03:05;;;;;;;11.95;8.60;;;;;;;;;;6188853;23;20021;-81
2020/12/28 05:05:31;;;;;;;12.52;8.82;;;;;;;;;;6189952;23;20076;-81
2020/12/28 05:07:57;;;;;;;12.30;8.15;;;;;;;;;;6189026;23;20021;-81
2020/12/28 05:10:26;;;;;;;14.48;8.27;;;;;;;;;;6189225;23;20021;-82
2020/12/28 05:12:53;;;;;;;16.13;9.07;;;;;;;;;;6189896;23;20071;-81
2020/12/28 05:15:20;;;;;;;16.23;9.10;;;;;;;;;;6190177;23;20025;-82
2020/12/28 05:17:53;;;;;;;18.25;9.30;;;;;;;;;;6189953;23;20013;-82
2020/12/28 05:20:22;;;;;;;14.73;9.00;;;;;;;;;;6190275;23;20028;-82
2020/12/28 05:22:50;;;;;;;14.68;8.13;;;;;;;;;;6190657;23;20029;-82
2020/12/28 05:25:16;;;;;;;12.52;8.07;;;;;;;;;;6190723;23;20032;-82
2020/12/28 05:27:45;;;;;;;11.68;7.60;;;;;;;;;;6190912;23;20025;-82
2020/12/28 05:30:12;;;;;;;12.35;8.20;;;;;;;;;;6190621;23;20017;-82
2020/12/28 05:32:43;;;;;;;12.27;7.72;;;;;;;;;;6190237;23;20021;-82
2020/12/28 05:35:08;;;;;;;12.32;7.45;;;;;;;;;;6190800;23;20032;-82
2020/12/28 05:37:36;;;;;;;11.00;6.78;;;;;;;;;;6191463;23;20130;-82
2020/12/28 05:40:02;;;;;;;12.80;8.43;;;;;;;;;;6190267;23;20025;-82
2020/12/28 05:42:28;;;;;;;14.98;9.07;;;;;;;;;;6190859;23;20021;-82
2020/12/28 05:44:54;;;;;;;14.75;8.38;;;;;;;;;;6190102;23;20036;-82
2020/12/28 05:47:21;;;;;;;10.68;7.18;;;;;;;;;;6191173;23;20032;-82
2020/12/28 05:49:49;;;;;;;12.15;8.15;;;;;;;;;;6191083;23;20017;-82
2020/12/28 05:52:16;;;;;;;11.48;7.55;;;;;;;;;;6190914;23;20433;-82
2020/12/28 05:54:42;;;;;;;14.45;8.18;;;;;;;;;;6190426;23;20036;-82
2020/12/28 05:57:09;;;;;;;16.58;10.40;;;;;;;;;;6190349;23;20496;-82
2020/12/28 05:59:37;;;;;;;13.77;8.93;;;;;;;;;;6190253;23;20021;-82
2020/12/28 06:02:04;;;;;;;10.90;7.40;;;;;;;;;;6190650;23;20025;-82
2020/12/28 06:04:30;;;;;;;14.18;9.13;;;;;;;;;;6192432;23;20021;-83
2020/12/28 06:06:57;;;;;;;14.98;8.95;;;;;;;;;;6192469;23;20043;-82
2020/12/28 06:09:23;;;;;;;19.05;10.20;;;;;;;;;;6192011;23;20021;-83
2020/12/28 06:11:49;;;;;;;16.83;10.27;;;;;;;;;;6192521;23;20048;-82
2020/12/28 06:14:17;;;;;;;15.90;9.52;;;;;;;;;;6192415;23;20056;-82
2020/12/28 06:16:43;;;;;;;20.65;10.90;;;;;;;;;;6192493;23;20100;-82
2020/12/28 06:19:20;;;;;;;16.83;10.30;;;;;;;;;;6187182;23;20017;-81
2020/12/28 06:21:46;;;;;;;;;;;;;;;;;;6187980;23;20685;-81
2020/12/28 06:24:13;;;;;;;13.93;8.52;;;;;;;;;;6187150;23;19923;-81
2020/12/28 06:26:38;;;;;;;10.02;6.75;;;;;;;;;;6187224;23;20036;-82
2020/12/28 06:29:05;;;;;;;10.20;6.00;;;;;;;;;;6186987;23;20017;-81
2020/12/28 06:31:31;;;;;;;10.98;5.72;;;;;;;;;;6187472;23;20330;-81
2020/12/28 06:33:57;;;;;;;11.63;6.85;;;;;;;;;;6187110;23;20024;-83
2020/12/28 06:36:23;;;;;;;10.43;6.82;;;;;;;;;;6187544;23;20021;-83
2020/12/28 06:38:57;;;;;;;11.48;7.10;;;;;;;;;;6186843;23;20419;-82
2020/12/28 06:41:27;;;;;;;9.07;5.03;;;;;;;;;;6188192;23;20021;-82
2020/12/28 06:43:56;;;;;;;8.02;5.30;;;;;;;;;;6187784;23;20342;-82
2020/12/28 06:46:23;;;;;;;7.95;4.75;;;;;;;;;;6188121;23;20028;-82
2020/12/28 06:48:49;;;;;;;12.25;7.30;;;;;;;;;;6187612;23;20021;-81
2020/12/28 06:51:15;;;;;;;12.68;7.18;;;;;;;;;;6187221;23;20025;-82
2020/12/28 06:53:41;;;;;;;12.07;6.00;;;;;;;;;;6187397;23;20024;-82
2020/12/28 06:56:09;;;;;;;11.95;6.40;;;;;;;;;;6183638;23;20464;-82
2020/12/28 06:58:35;;;;;;;9.85;5.85;;;;;;;;;;6187397;23;20088;-82
2020/12/28 07:01:03;;;;;;;10.50;5.85;;;;;;;;;;6187431;23;20442;-82
2020/12/28 07:03:29;;;;;;;8.02;5.18;;;;;;;;;;6186822;23;20017;-82
2020/12/28 07:05:59;;;;;;;9.20;5.53;;;;;;;;;;6187875;23;20319;-83
2020/12/28 07:08:26;;;;;;;9.90;6.15;;;;;;;;;;6188265;23;20036;-82
2020/12/28 07:10:57;;;;;;;12.02;7.50;;;;;;;;;;6187961;23;20087;-83
2020/12/28 07:13:24;;;;;;;10.38;6.28;;;;;;;;;;6188203;23;20427;-83
2020/12/28 07:15:50;;;;;;;10.43;6.30;;;;;;;;;;6188229;23;20021;-82
2020/12/28 07:18:16;;;;;;;10.15;5.90;;;;;;;;;;6188120;23;20104;-82
2020/12/28 07:20:42;;;;;;;15.27;12.23;;;;;;;;;;6188230;23;20024;-83
2020/12/28 07:23:08;;;;;;;14.90;9.07;;;;;;;;;;6187741;23;20446;-82
2020/12/28 07:25:33;;;;;;;21.17;15.25;;;;;;;;;;6187410;23;20071;-83
2020/12/28 07:27:59;;;;;;;15.93;10.38;;;;;;;;;;6187543;23;20453;-82
2020/12/28 07:30:26;;;;;;;13.95;8.15;;;;;;;;;;6187643;23;20397;-82
2020/12/28 07:32:56;;;;;;;11.20;6.80;;;;;;;;;;6187196;23;20067;-82
2020/12/28 07:35:22;;;;;;;43.10;26.98;;;;;;;;;;6187049;23;20311;-83
2020/12/28 07:37:49;;;;;;;188.30;115.50;;;;;;;;;;6187132;23;20029;-83
2020/12/28 07:40:15;;;;;;;115.15;79.45;;;;;;;;;;6187448;23;20021;-82
2020/12/28 07:42:41;;;;;;;50.95;40.60;;;;;;;;;;6187096;23;20345;-83
2020/12/28 07:45:08;;;;;;;25.83;20.33;;;;;;;;;;6187798;23;20510;-83
2020/12/28 07:47:40;;;;;;;15.27;9.25;;;;;;;;;;6187670;23;20021;-82
2020/12/28 07:50:08;;;;;;;16.77;10.25;;;;;;;;;;6187273;23;20017;-82
2020/12/28 07:52:39;;;;;;;28.05;13.98;;;;;;;;;;6187530;23;20021;-82
2020/12/28 07:55:08;;;;;;;31.52;13.13;;;;;;;;;;6187094;23;20021;-83
2020/12/28 07:57:42;;;;;;;23.45;12.48;;;;;;;;;;6187063;23;20043;-82
2020/12/28 08:00:12;;;;;;;12.13;8.20;;;;;;;;;;6187949;23;20024;-82
2020/12/28 08:02:47;;;;;;;14.50;9.55;;;;;;;;;;6187574;23;20043;-82
2020/12/28 08:05:13;;;;;;;10.18;6.07;;;;;;;;;;6188101;23;20381;-82
2020/12/28 08:07:39;;;;;;;8.18;5.70;;;;;;;;;;6187478;23;20029;-82
2020/12/28 08:10:09;;;;;;;9.65;5.93;;;;;;;;;;6186559;23;20055;-83
2020/12/28 08:12:39;;;;;;;9.68;5.72;;;;;;;;;;6187269;23;20025;-83
2020/12/28 08:15:05;;;;;;;9.93;6.10;;;;;;;;;;6187487;23;20041;-82
2020/12/28 08:17:31;;;;;;;13.25;9.02;;;;;;;;;;6187020;23;20105;-83
2020/12/28 08:20:06;;;;;;;15.05;9.70;;;;;;;;;;6187522;23;20021;-82
2020/12/28 08:22:32;;;;;;;17.30;11.65;;;;;;;;;;6186133;23;20032;-82
2020/12/28 08:24:59;;;;;;;13.88;9.98;;;;;;;;;;6185377;23;20048;-82
2020/12/28 08:27:28;;;;;;;17.50;9.63;;;;;;;;;;6186054;23;20029;-81
2020/12/28 08:29:54;;;;;;;16.65;9.48;;;;;;;;;;6186585;23;20024;-82
2020/12/28 08:32:20;;;;;;;11.57;7.40;;;;;;;;;;6185932;23;20020;-82
2020/12/28 08:34:53;;;;;;;11.43;7.80;;;;;;;;;;6187036;23;20084;-82
2020/12/28 08:37:20;;;;;;;12.82;7.95;;;;;;;;;;6187063;23;20048;-82
2020/12/28 08:39:46;;;;;;;11.13;7.97;;;;;;;;;;6186548;23;20087;-82
2020/12/28 08:42:12;;;;;;;12.63;8.07;;;;;;;;;;6185933;23;20021;-82
2020/12/28 08:44:40;;;;;;;12.27;7.63;;;;;;;;;;6186260;23;20032;-82
2020/12/28 08:47:11;;;;;;;11.82;8.10;;;;;;;;;;6186629;23;20029;-82
2020/12/28 08:49:37;;;;;;;14.10;8.52;;;;;;;;;;6186906;23;20397;-82
2020/12/28 08:52:07;;;;;;;16.50;9.32;;;;;;;;;;6185934;23;20378;-82
2020/12/28 08:54:34;;;;;;;13.45;8.68;;;;;;;;;;6186623;23;20454;-83
2020/12/28 08:57:00;;;;;;;16.27;8.55;;;;;;;;;;6185647;23;20485;-83
2020/12/28 08:59:26;;;;;;;22.30;13.57;;;;;;;;;;6186181;23;20021;-81
2020/12/28 09:01:52;;;;;;;20.05;11.48;;;;;;;;;;6186292;23;20021;-82
2020/12/28 09:04:19;;;;;;;20.38;12.82;;;;;;;;;;6187003;23;20029;-82
2020/12/28 09:06:45;;;;;;;16.92;10.13;;;;;;;;;;6187080;23;20023;-82
2020/12/28 09:09:11;;;;;;;20.83;12.60;;;;;;;;;;6186594;23;20025;-82
2020/12/28 09:11:38;;;;;;;19.20;11.35;;;;;;;;;;6185880;23;20025;-82
2020/12/28 09:14:04;;;;;;;18.20;10.98;;;;;;;;;;6185650;23;20052;-83
2020/12/28 09:16:30;;;;;;;14.10;9.32;;;;;;;;;;6186468;23;20331;-82
2020/12/28 09:18:56;;;;;;;16.65;9.70;;;;;;;;;;6183421;23;20025;-82
2020/12/28 09:21:22;;;;;;;19.75;12.00;;;;;;;;;;6187422;23;20021;-82
2020/12/28 09:23:48;;;;;;;20.38;11.18;;;;;;;;;;6185437;23;20100;-82
2020/12/28 09:26:14;;;;;;;19.17;10.77;;;;;;;;;;6186337;23;20080;-81
2020/12/28 09:28:41;;;;;;;17.02;10.25;;;;;;;;;;6187343;23;20334;-80
2020/12/28 09:31:07;;;;;;;15.35;9.98;;;;;;;;;;6188508;23;20032;-80
2020/12/28 09:33:33;;;;;;;14.15;8.73;;;;;;;;;;6188245;23;20096;-81
2020/12/28 09:35:59;;;;;;;12.68;8.50;;;;;;;;;;6187991;23;20100;-81
2020/12/28 09:38:25;;;;;;;24.83;13.32;;;;;;;;;;6189198;23;20025;-82
2020/12/28 09:40:52;;;;;;;22.83;13.82;;;;;;;;;;6190341;23;20021;-81
2020/12/28 09:43:18;;;;;;;22.30;12.73;;;;;;;;;;6190210;23;20071;-81
2020/12/28 09:45:45;;;;;;;15.65;9.40;;;;;;;;;;6192465;23;20024;-81
2020/12/28 09:48:12;;;;;;;15.02;8.65;;;;;;;;;;6189652;23;20045;-81
2020/12/28 09:50:38;;;;;;;12.13;7.97;;;;;;;;;;6190731;23;20516;-81
2020/12/28 09:53:04;;;;;;;12.15;7.78;;;;;;;;;;6190829;23;20021;-81
2020/12/28 09:55:30;;;;;;;21.65;13.95;;;;;;;;;;6192103;23;20099;-81
2020/12/28 09:57:56;;;;;;;23.13;13.77;;;;;;;;;;6191473;23;20025;-81
2020/12/28 10:00:22;;;;;;;17.60;10.48;;;;;;;;;;6190941;23;20052;-81
2020/12/28 10:02:48;;;;;;;21.55;12.05;;;;;;;;;;6188952;23;20060;-81
2020/12/28 10:05:14;;;;;;;16.15;9.88;;;;;;;;;;6190053;23;20486;-80
2020/12/28 10:07:40;;;;;;;18.55;11.00;;;;;;;;;;6189071;23;20031;-80
2020/12/28 10:10:10;;;;;;;13.63;9.52;;;;;;;;;;6190711;23;20021;-80
2020/12/28 10:12:38;;;;;;;15.43;9.68;;;;;;;;;;6190332;23;20021;-80
2020/12/28 10:15:05;;;;;;;11.70;8.73;;;;;;;;;;6189620;23;20431;-82
2020/12/28 10:17:31;;;;;;;13.70;7.97;;;;;;;;;;6187706;23;20025;-81
2020/12/28 10:19:57;;;;;;;10.60;6.95;;;;;;;;;;6189689;23;20020;-82
2020/12/28 10:22:23;;;;;;;15.05;8.90;;;;;;;;;;6189674;23;20053;-81
2020/12/28 10:24:51;;;;;;;13.55;8.32;;;;;;;;;;6189009;23;20025;-81
2020/12/28 10:27:17;;;;;;;12.93;7.38;;;;;;;;;;6187423;23;20091;-81
2020/12/28 10:29:43;;;;;;;13.30;7.65;;;;;;;;;;6190688;23;20311;-82
2020/12/28 10:32:09;;;;;;;16.40;9.07;;;;;;;;;;6190497;23;20119;-81
2020/12/28 10:34:35;;;;;;;17.88;9.02;;;;;;;;;;6191524;23;20079;-81
2020/12/28 10:37:02;;;;;;;20.92;9.77;;;;;;;;;;6191682;23;20148;-81
2020/12/28 10:39:28;;;;;;;20.30;11.07;;;;;;;;;;6191353;23;20068;-81
2020/12/28 10:41:54;;;;;;;15.82;9.27;;;;;;;;;;6191716;23;20021;-82
2020/12/28 10:44:21;;;;;;;14.25;9.45;;;;;;;;;;6190788;23;20025;-82
2020/12/28 10:46:47;;;;;;;14.63;8.50;;;;;;;;;;6191303;23;20095;-82
2020/12/28 10:49:13;;;;;;;14.32;8.52;;;;;;;;;;6190955;23;20024;-82
2020/12/28 10:51:39;;;;;;;14.23;7.80;;;;;;;;;;6190471;23;20048;-81
2020/12/28 10:54:06;;;;;;;13.32;8.60;;;;;;;;;;6190103;23;20017;-82
2020/12/28 10:56:32;;;;;;;15.48;8.80;;;;;;;;;;6189390;23;20028;-82
2020/12/28 10:59:02;;;;;;;15.52;9.93;;;;;;;;;;6190110;23;20017;-82
2020/12/28 11:01:28;;;;;;;13.93;8.70;;;;;;;;;;6190078;23;20056;-81
2020/12/28 11:03:55;;;;;;;14.63;9.27;;;;;;;;;;6189551;23;20024;-80
2020/12/28 11:06:21;;;;;;;17.25;10.02;;;;;;;;;;6190755;23;20025;-81
2020/12/28 11:08:48;;;;;;;17.92;9.90;;;;;;;;;;6190909;23;20036;-82
2020/12/28 11:11:16;;;;;;;11.75;9.13;;;;;;;;;;6190525;23;20520;-81
2020/12/28 11:13:42;;;;;;;14.50;9.15;;;;;;;;;;6190004;23;20025;-81
2020/12/28 11:16:08;;;;;;;14.07;9.55;;;;;;;;;;6190043;23;20025;-82
2020/12/28 11:18:34;;;;;;;13.35;8.95;;;;;;;;;;6190051;23;20032;-82
2020/12/28 11:21:01;;;;;;;13.40;8.45;;;;;;;;;;6190425;23;20028;-82
2020/12/28 11:23:57;;;;;;;17.60;9.55;;;;;;;;;;6190092;23;20017;-81
2020/12/28 11:26:16;;;;;;;16.23;9.93;;;;;;;;;;6190161;23;20024;-82
2020/12/28 11:28:42;;;;;;;18.63;10.52;;;;;;;;;;6191118;23;20017;-82
2020/12/28 11:31:08;;;;;;;15.88;10.60;;;;;;;;;;6190132;23;20032;-82
2020/12/28 11:33:34;;;;;;;15.23;10.52;;;;;;;;;;6190994;23;20021;-82
2020/12/28 11:36:00;;;;;;;14.18;10.23;;;;;;;;;;6190641;23;20028;-82
2020/12/28 11:38:26;;;;;;;16.77;11.15;;;;;;;;;;6190683;23;20076;-82
2020/12/28 11:40:52;;;;;;;16.50;11.07;;;;;;;;;;6189930;23;20021;-82
2020/12/28 11:43:18;;;;;;;15.85;9.43;;;;;;;;;;6189128;23;20028;-82
2020/12/28 11:45:44;;;;;;;16.15;10.43;;;;;;;;;;6188896;23;20021;-81
2020/12/28 11:48:10;;;;;;;15.93;9.43;;;;;;;;;;6189221;23;20083;-82
2020/12/28 11:50:36;;;;;;;13.70;10.10;;;;;;;;;;6189814;23;20048;-81
2020/12/28 11:53:02;;;;;;;16.27;9.90;;;;;;;;;;6189679;23;20021;-82
2020/12/28 11:56:00;;;;;;;15.23;9.18;;;;;;;;;;6188753;23;20047;-82
2020/12/28 11:58:14;;;;;;;15.02;9.00;;;;;;;;;;6190533;23;20029;-83
2020/12/28 12:00:41;;;;;;;14.60;9.95;;;;;;;;;;6191346;23;20055;-82
2020/12/28 12:03:07;;;;;;;14.63;10.00;;;;;;;;;;6190125;23;20040;-82
2020/12/28 12:05:34;;;;;;;17.98;10.30;;;;;;;;;;6188583;23;20345;-82
2020/12/28 12:08:00;;;;;;;20.75;11.80;;;;;;;;;;6189122;23;20020;-84
2020/12/28 12:10:26;;;;;;;15.80;10.25;;;;;;;;;;6190755;23;20092;-82
2020/12/28 12:12:52;;;;;;;15.48;9.95;;;;;;;;;;6189257;23;20021;-82
2020/12/28 12:15:18;;;;;;;15.73;10.77;;;;;;;;;;6190510;23;20044;-83
2020/12/28 12:17:45;;;;;;;15.07;10.60;;;;;;;;;;6188102;23;20021;-82
2020/12/28 12:20:11;;;;;;;28.58;17.75;;;;;;;;;;6191536;23;20023;-83
2020/12/28 12:22:37;;;;;;;34.05;21.70;;;;;;;;;;6190597;23;20029;-83
2020/12/28 12:25:03;;;;;;;35.67;24.27;;;;;;;;;;6190595;23;20442;-82
2020/12/28 12:27:29;;;;;;;36.33;24.52;;;;;;;;;;6189187;23;20017;-82
2020/12/28 12:29:55;;;;;;;34.03;21.13;;;;;;;;;;6190894;23;20028;-83
2020/12/28 12:32:22;;;;;;;29.42;19.10;;;;;;;;;;6190396;23;20040;-83
2020/12/28 12:34:49;;;;;;;30.85;18.10;;;;;;;;;;6190559;23;20021;-83
2020/12/28 12:37:15;;;;;;;25.50;16.77;;;;;;;;;;6189880;23;20455;-83
2020/12/28 12:39:41;;;;;;;25.48;16.63;;;;;;;;;;6189837;23;20017;-83
2020/12/28 12:42:07;;;;;;;25.15;15.80;;;;;;;;;;6189709;23;20056;-83
2020/12/28 12:44:33;;;;;;;26.90;17.10;;;;;;;;;;6189623;23;20021;-83
2020/12/28 12:46:59;;;;;;;27.45;17.65;;;;;;;;;;6190530;23;20083;-82
2020/12/28 12:49:25;;;;;;;23.40;14.57;;;;;;;;;;6190754;23;20048;-83
2020/12/28 12:52:11;;;;;;;24.90;15.13;;;;;;;;;;6190486;23;20021;-83
2020/12/28 12:54:37;;;;;;;25.10;15.68;;;;;;;;;;6191468;23;20021;-83
2020/12/28 12:57:03;;;;;;;23.83;14.30;;;;;;;;;;6191291;23;20028;-83
2020/12/28 12:59:28;;;;;;;21.77;15.38;;;;;;;;;;6190926;23;20509;-83
2020/12/28 13:01:54;;;;;;;21.55;13.73;;;;;;;;;;6189993;23;20402;-84
2020/12/28 13:04:30;;;;;;;20.23;12.30;;;;;;;;;;6189385;23;20044;-83
2020/12/28 13:06:57;;;;;;;21.15;13.20;;;;;;;;;;6190690;23;20052;-84
2020/12/28 13:09:23;;;;;;;20.63;13.15;;;;;;;;;;6190098;23;20443;-84
2020/12/28 13:11:49;;;;;;;21.13;13.45;;;;;;;;;;6189839;23;20099;-83
2020/12/28 13:14:15;;;;;;;21.55;14.05;;;;;;;;;;6191334;23;20346;-84
2020/12/28 13:16:41;;;;;;;21.20;14.43;;;;;;;;;;6192763;23;20094;-84
2020/12/28 13:19:07;;;;;;;22.27;14.05;;;;;;;;;;6192497;23;20105;-84
2020/12/28 13:21:33;;;;;;;18.40;11.93;;;;;;;;;;6193327;23;20032;-86
2020/12/28 13:24:01;;;;;;;19.77;11.63;;;;;;;;;;6192581;23;20031;-84
2020/12/28 13:26:27;;;;;;;20.65;12.68;;;;;;;;;;6193503;23;20327;-84
2020/12/28 13:28:53;;;;;;;21.65;12.32;;;;;;;;;;6192077;23;20048;-83
2020/12/28 13:31:19;;;;;;;18.20;11.48;;;;;;;;;;6193434;23;20020;-84
2020/12/28 13:33:45;;;;;;;16.60;11.40;;;;;;;;;;6193456;23;20508;-84
2020/12/28 13:36:11;;;;;;;18.50;11.60;;;;;;;;;;6193891;23;20021;-85
2020/12/28 13:38:38;;;;;;;19.83;12.25;;;;;;;;;;6192625;23;20021;-86
2020/12/28 13:41:05;;;;;;;23.70;14.02;;;;;;;;;;6193186;23;20021;-83
2020/12/28 13:43:31;;;;;;;17.55;11.50;;;;;;;;;;6193166;23;20021;-82
2020/12/28 13:45:58;;;;;;;14.45;9.75;;;;;;;;;;6192145;23;20032;-85
2020/12/28 13:48:24;;;;;;;18.27;11.07;;;;;;;;;;6192038;23;20021;-83
2020/12/28 13:50:50;;;;;;;12.55;9.25;;;;;;;;;;6191798;23;20574;-83
2020/12/28 13:53:16;;;;;;;15.98;9.25;;;;;;;;;;6192156;23;20025;-83
2020/12/28 13:55:46;;;;;;;16.00;9.43;;;;;;;;;;6191899;23;20311;-82
2020/12/28 13:58:13;;;;;;;13.68;9.20;;;;;;;;;;6192694;23;20046;-83
2020/12/28 14:00:41;;;;;;;15.00;9.35;;;;;;;;;;6193285;23;20032;-83
2020/12/28 14:03:07;;;;;;;13.50;9.30;;;;;;;;;;6191942;23;20405;-83
2020/12/28 14:05:33;;;;;;;12.68;9.07;;;;;;;;;;6191968;23;20028;-83
2020/12/28 14:07:59;;;;;;;15.05;9.85;;;;;;;;;;6192984;23;20039;-84
2020/12/28 14:10:25;;;;;;;14.48;9.75;;;;;;;;;;6192873;23;20052;-84
2020/12/28 14:12:53;;;;;;;21.08;14.43;;;;;;;;;;6192857;23;20029;-86
2020/12/28 14:15:19;;;;;;;28.30;19.30;;;;;;;;;;6192193;23;20468;-83
2020/12/28 14:17:45;;;;;;;19.88;13.07;;;;;;;;;;6191992;23;20032;-83
2020/12/28 14:20:11;;;;;;;13.85;10.27;;;;;;;;;;6192619;23;20021;-83
2020/12/28 14:22:38;;;;;;;13.27;8.85;;;;;;;;;;6192021;23;20031;-84